KCOT/COT METAR and TAF weather

Enter ICAO airport designator
Station Type Date Time Source
KCOT METAR 2019/02/23 16:53 UTC NOAA

KCOT 231653Z AUTO 34015KT 10SM CLR 21/01 A2998 RMK AO2 SLP148 T02060011


Station Type Date Time Source
KCOT Decoded METAR 2019/02/23 16:53 UTC NOAA

COTULLA-LASALLE COUNTY AIRPORT , TX, United States (KCOT) 28-27N 099-13W 140M
Feb 23, 2019 - 11:53 AM EST / 2019.02.23 1653 UTC
Wind: from the NNW (340 degrees) at 17 MPH (15 KT):0
Visibility: 10 mile(s):0
Sky conditions: clear
Temperature: 69.1 F (20.6 C)
Dew Point: 34.0 F (1.1 C)
Relative Humidity: 27%
Pressure (altimeter): 29.98 in. Hg (1015 hPa)
ob: KCOT 231653Z AUTO 34015KT 10SM CLR 21/01 A2998 RMK AO2 SLP148 T02060011
cycle: 17

Station Type Date Time Source
KCOT TAF UTC NOAA

Error!


Example: see airport list